TKY1905 EPPO-DTTJ
Flight info
| Callsign | TKY1905 |
|---|---|
| Flight time | N/A |
| Altitude | 35000 |
| Route | XIDNA DCT VAGON DCT DESEN DCT MIKOV DCT RUPET DCT GRZ DCT ALIVO DCT TORPO DCT NEKPI DCT PNZ DCT MEGAN DCT TUPAL UG728 CBN UG727 MON DCT TRIFA DCT NAKIL |
| Aircraft | B738/M-SDE2E3FGHIRWXY/LB1 |
Departure
| Time | 2026-05-05 14:53 |
|---|---|
| Airport | Poznań-Ławica Airport (EPPO) |
Arrival
| Time | N/A |
|---|---|
| Airport | Djerba Zarzis International Airport (DTTJ) |
| Time | Latitude | Longitude | Altitude | Speed | Heading |
|---|---|---|---|---|---|
| 2026-05-05 14:44 | 52.41589 | 16.82913 | 287 ft | 0 kts | 192° |
| 2026-05-05 14:49 | 52.41589 | 16.82912 | 287 ft | 0 kts | 192° |
| 2026-05-05 14:49 | 52.41584 | 16.82899 | 290 ft | 2 kts | 253° |
| 2026-05-05 14:50 | 52.41595 | 16.82883 | 290 ft | 2 kts | 350° |
| 2026-05-05 14:50 | 52.41611 | 16.82887 | 288 ft | 2 kts | 13° |
| 2026-05-05 14:50 | 52.41628 | 16.82903 | 287 ft | 4 kts | 35° |
| 2026-05-05 14:50 | 52.41643 | 16.82956 | 287 ft | 7 kts | 85° |
| 2026-05-05 14:51 | 52.41634 | 16.83075 | 287 ft | 13 kts | 104° |
| 2026-05-05 14:51 | 52.41608 | 16.83255 | 290 ft | 19 kts | 102° |
| 2026-05-05 14:51 | 52.41578 | 16.83478 | 287 ft | 20 kts | 103° |
| 2026-05-05 14:51 | 52.41564 | 16.83703 | 287 ft | 20 kts | 92° |
| 2026-05-05 14:52 | 52.41583 | 16.83895 | 287 ft | 17 kts | 51° |
| 2026-05-05 14:52 | 52.41670 | 16.83995 | 287 ft | 15 kts | 26° |
| 2026-05-05 14:52 | 52.41763 | 16.84060 | 287 ft | 14 kts | 19° |
| 2026-05-05 14:52 | 52.41839 | 16.83994 | 290 ft | 14 kts | 296° |
| 2026-05-05 14:53 | 52.41879 | 16.83794 | 290 ft | 41 kts | 288° |
| 2026-05-05 14:53 | 52.42042 | 16.82943 | 285 ft | 114 kts | 288° |
| 2026-05-05 14:53 | 52.42351 | 16.81371 | 298 ft | 173 kts | 287° |
| 2026-05-05 14:53 | 52.42667 | 16.79423 | 1037 ft | 173 kts | 290° |
| 2026-05-05 14:54 | 52.43035 | 16.77507 | 1883 ft | 182 kts | 290° |
| 2026-05-05 14:54 | 52.43440 | 16.75476 | 2515 ft | 200 kts | 289° |
| 2026-05-05 14:54 | 52.43893 | 16.73170 | 2766 ft | 225 kts | 288° |
| 2026-05-05 14:54 | 52.44394 | 16.70644 | 3159 ft | 238 kts | 288° |
| 2026-05-05 14:55 | 52.44906 | 16.68033 | 3770 ft | 242 kts | 287° |
| 2026-05-05 14:55 | 52.45424 | 16.65364 | 4369 ft | 249 kts | 286° |
| 2026-05-05 14:55 | 52.45953 | 16.62617 | 5087 ft | 254 kts | 286° |
| 2026-05-05 14:55 | 52.46481 | 16.59855 | 5964 ft | 254 kts | 285° |
| 2026-05-05 14:56 | 52.47010 | 16.57083 | 6754 ft | 255 kts | 285° |
| 2026-05-05 14:56 | 52.47464 | 16.54278 | 7524 ft | 254 kts | 272° |
| 2026-05-05 14:56 | 52.47213 | 16.51447 | 8290 ft | 252 kts | 246° |
| 2026-05-05 14:56 | 52.46232 | 16.49075 | 9079 ft | 254 kts | 225° |
| 2026-05-05 14:57 | 52.44749 | 16.47487 | 9831 ft | 259 kts | 204° |
| 2026-05-05 14:57 | 52.43036 | 16.46628 | 10499 ft | 266 kts | 191° |
| 2026-05-05 14:57 | 52.41167 | 16.46928 | 11122 ft | 279 kts | 164° |
| 2026-05-05 14:57 | 52.39472 | 16.48619 | 11621 ft | 300 kts | 139° |
| 2026-05-05 14:58 | 52.38329 | 16.51663 | 11794 ft | 331 kts | 112° |
| 2026-05-05 14:58 | 52.37620 | 16.55438 | 11979 ft | 354 kts | 109° |
| 2026-05-05 14:58 | 52.36925 | 16.59351 | 12206 ft | 372 kts | 109° |
| 2026-05-05 14:58 | 52.36182 | 16.63460 | 12716 ft | 380 kts | 109° |
| 2026-05-05 14:59 | 52.35173 | 16.67429 | 13409 ft | 377 kts | 127° |
| 2026-05-05 14:59 | 52.33393 | 16.70505 | 14079 ft | 370 kts | 149° |
| 2026-05-05 14:59 | 52.31089 | 16.72191 | 14650 ft | 363 kts | 172° |
| 2026-05-05 14:59 | 52.28589 | 16.72717 | 15251 ft | 362 kts | 182° |
| 2026-05-05 15:00 | 52.26102 | 16.72255 | 15799 ft | 360 kts | 198° |
| 2026-05-05 15:00 | 52.24509 | 16.71477 | 16181 ft | 362 kts | 200° |
| 2026-05-05 15:00 | 52.21292 | 16.69746 | 16941 ft | 367 kts | 201° |
| 2026-05-05 15:00 | 52.18850 | 16.68458 | 17511 ft | 370 kts | 200° |
| 2026-05-05 15:01 | 52.16351 | 16.67347 | 18057 ft | 378 kts | 190° |
| 2026-05-05 15:01 | 52.13702 | 16.67433 | 18556 ft | 387 kts | 173° |
| 2026-05-05 15:01 | 52.11119 | 16.68835 | 19069 ft | 395 kts | 160° |
| 2026-05-05 15:01 | 52.08610 | 16.70708 | 19577 ft | 399 kts | 158° |
| 2026-05-05 15:02 | 52.06095 | 16.72664 | 20055 ft | 402 kts | 158° |
| 2026-05-05 15:02 | 52.03566 | 16.74637 | 20546 ft | 405 kts | 158° |
| 2026-05-05 15:02 | 52.01015 | 16.76609 | 21035 ft | 407 kts | 159° |
| 2026-05-05 15:02 | 51.98442 | 16.78573 | 21505 ft | 410 kts | 159° |
| 2026-05-05 15:03 | 51.95850 | 16.80532 | 21949 ft | 412 kts | 159° |
| 2026-05-05 15:03 | 51.93240 | 16.82493 | 22397 ft | 415 kts | 159° |
| 2026-05-05 15:03 | 51.90606 | 16.84464 | 22839 ft | 418 kts | 159° |
| 2026-05-05 15:03 | 51.87952 | 16.86446 | 23280 ft | 421 kts | 159° |
| 2026-05-05 15:04 | 51.85289 | 16.88433 | 23660 ft | 423 kts | 159° |
| 2026-05-05 15:04 | 51.82609 | 16.90431 | 24027 ft | 425 kts | 159° |
| 2026-05-05 15:04 | 51.79914 | 16.92438 | 24393 ft | 427 kts | 159° |
| 2026-05-05 15:04 | 51.77201 | 16.94455 | 24743 ft | 430 kts | 159° |
| 2026-05-05 15:05 | 51.71740 | 16.98508 | 25431 ft | 434 kts | 159° |
| 2026-05-05 15:05 | 51.68941 | 17.00306 | 25741 ft | 432 kts | 169° |
| 2026-05-05 15:05 | 51.66032 | 17.01285 | 26073 ft | 432 kts | 173° |
| 2026-05-05 15:06 | 51.63029 | 17.02105 | 26398 ft | 434 kts | 174° |
| 2026-05-05 15:06 | 51.60080 | 17.02883 | 26693 ft | 436 kts | 174° |
| 2026-05-05 15:06 | 51.57076 | 17.03698 | 27005 ft | 439 kts | 173° |
| 2026-05-05 15:06 | 51.54067 | 17.04546 | 27311 ft | 441 kts | 173° |
| 2026-05-05 15:07 | 51.51045 | 17.05423 | 27614 ft | 443 kts | 173° |
| 2026-05-05 15:07 | 51.48004 | 17.06320 | 27921 ft | 445 kts | 172° |
| 2026-05-05 15:07 | 51.44955 | 17.07224 | 28195 ft | 447 kts | 172° |
| 2026-05-05 15:07 | 51.41891 | 17.08132 | 28482 ft | 449 kts | 172° |
| 2026-05-05 15:08 | 51.38810 | 17.09043 | 28770 ft | 451 kts | 172° |
| 2026-05-05 15:08 | 51.35725 | 17.09952 | 29046 ft | 452 kts | 172° |
| 2026-05-05 15:08 | 51.32618 | 17.10865 | 29305 ft | 454 kts | 172° |
| 2026-05-05 15:08 | 51.29518 | 17.11827 | 29671 ft | 454 kts | 171° |
| 2026-05-05 15:09 | 51.26449 | 17.12961 | 30061 ft | 453 kts | 169° |
| 2026-05-05 15:09 | 51.23389 | 17.14187 | 30389 ft | 452 kts | 169° |
| 2026-05-05 15:09 | 51.20343 | 17.15436 | 30674 ft | 452 kts | 168° |
| 2026-05-05 15:09 | 51.17297 | 17.16684 | 30940 ft | 453 kts | 169° |
| 2026-05-05 15:10 | 51.14246 | 17.17921 | 31214 ft | 452 kts | 169° |
| 2026-05-05 15:10 | 51.11197 | 17.19141 | 31509 ft | 452 kts | 169° |
| 2026-05-05 15:10 | 51.08146 | 17.20351 | 31792 ft | 451 kts | 169° |
| 2026-05-05 15:10 | 51.05058 | 17.21567 | 32054 ft | 452 kts | 169° |
| 2026-05-05 15:11 | 51.02046 | 17.22749 | 32310 ft | 452 kts | 169° |
| 2026-05-05 15:11 | 50.98997 | 17.23942 | 32579 ft | 451 kts | 169° |
| 2026-05-05 15:11 | 50.95949 | 17.25134 | 32851 ft | 451 kts | 169° |
| 2026-05-05 15:11 | 50.92896 | 17.26327 | 33111 ft | 451 kts | 169° |
| 2026-05-05 15:12 | 50.89850 | 17.27515 | 33369 ft | 450 kts | 169° |
| 2026-05-05 15:12 | 50.86811 | 17.28700 | 33642 ft | 450 kts | 169° |
| 2026-05-05 15:12 | 50.83774 | 17.29882 | 33866 ft | 450 kts | 169° |
| 2026-05-05 15:12 | 50.80737 | 17.31063 | 34091 ft | 449 kts | 169° |
| 2026-05-05 15:13 | 50.77707 | 17.32240 | 34315 ft | 448 kts | 169° |
| 2026-05-05 15:13 | 50.74677 | 17.33414 | 34523 ft | 448 kts | 169° |
| 2026-05-05 15:13 | 50.71647 | 17.34588 | 34730 ft | 447 kts | 169° |
| 2026-05-05 15:14 | 50.65568 | 17.36936 | 34772 ft | 450 kts | 169° |
| 2026-05-05 15:14 | 50.59516 | 17.39270 | 34767 ft | 446 kts | 169° |
| 2026-05-05 15:15 | 50.54513 | 17.41194 | 34772 ft | 444 kts | 169° |
| 2026-05-05 15:15 | 50.48539 | 17.43486 | 34776 ft | 441 kts | 169° |
| 2026-05-05 15:16 | 50.42576 | 17.45767 | 34786 ft | 440 kts | 169° |
| 2026-05-05 15:16 | 50.36631 | 17.48036 | 34787 ft | 440 kts | 169° |
| 2026-05-05 15:17 | 50.30676 | 17.50260 | 34786 ft | 439 kts | 173° |
| 2026-05-05 15:17 | 50.27654 | 17.50615 | 34797 ft | 434 kts | 185° |
| 2026-05-05 15:17 | 50.24671 | 17.50070 | 34797 ft | 431 kts | 195° |
| 2026-05-05 15:18 | 50.19049 | 17.46954 | 34797 ft | 430 kts | 204° |
| 2026-05-05 15:18 | 50.13510 | 17.43407 | 34801 ft | 431 kts | 204° |
| 2026-05-05 15:19 | 50.07935 | 17.39886 | 34802 ft | 433 kts | 204° |
| 2026-05-05 15:19 | 50.02328 | 17.36404 | 34808 ft | 435 kts | 204° |
| 2026-05-05 15:20 | 49.96701 | 17.32937 | 34814 ft | 436 kts | 204° |
| 2026-05-05 15:20 | 49.91057 | 17.29473 | 34805 ft | 436 kts | 204° |
| 2026-05-05 15:21 | 49.85415 | 17.26018 | 34805 ft | 436 kts | 204° |
| 2026-05-05 15:21 | 49.79771 | 17.22569 | 34811 ft | 436 kts | 203° |
| 2026-05-05 15:22 | 49.74136 | 17.19133 | 34797 ft | 435 kts | 204° |
| 2026-05-05 15:22 | 49.68501 | 17.15707 | 34799 ft | 434 kts | 203° |
| 2026-05-05 15:23 | 49.62889 | 17.12303 | 34796 ft | 433 kts | 204° |
| 2026-05-05 15:23 | 49.57288 | 17.08913 | 34804 ft | 432 kts | 203° |
| 2026-05-05 15:24 | 49.51694 | 17.05536 | 34800 ft | 432 kts | 203° |
| 2026-05-05 15:24 | 49.46102 | 17.02169 | 34793 ft | 431 kts | 203° |
| 2026-05-05 15:25 | 49.40509 | 16.98810 | 34786 ft | 432 kts | 203° |
| 2026-05-05 15:25 | 49.34910 | 16.95455 | 34788 ft | 432 kts | 203° |
| 2026-05-05 15:26 | 49.29310 | 16.92107 | 34775 ft | 432 kts | 203° |
| 2026-05-05 15:26 | 49.23699 | 16.88762 | 34773 ft | 433 kts | 203° |
| 2026-05-05 15:27 | 49.18091 | 16.85426 | 34782 ft | 433 kts | 203° |
| 2026-05-05 15:27 | 49.12476 | 16.82094 | 34775 ft | 433 kts | 203° |
| 2026-05-05 15:28 | 49.06858 | 16.78769 | 34770 ft | 433 kts | 203° |
| 2026-05-05 15:28 | 49.01232 | 16.75447 | 34772 ft | 433 kts | 203° |
| 2026-05-05 15:29 | 48.95612 | 16.72136 | 34769 ft | 433 kts | 203° |
| 2026-05-05 15:29 | 48.89994 | 16.68833 | 34769 ft | 433 kts | 203° |
| 2026-05-05 15:30 | 48.84374 | 16.65537 | 34768 ft | 433 kts | 203° |
| 2026-05-05 15:30 | 48.78760 | 16.62252 | 34762 ft | 432 kts | 204° |
| 2026-05-05 15:31 | 48.73250 | 16.58630 | 34759 ft | 431 kts | 207° |
| 2026-05-05 15:31 | 48.67808 | 16.54806 | 34755 ft | 431 kts | 207° |
| 2026-05-05 15:32 | 48.62369 | 16.51004 | 34746 ft | 431 kts | 207° |
| 2026-05-05 15:32 | 48.56923 | 16.47246 | 34746 ft | 430 kts | 207° |
| 2026-05-05 15:33 | 48.51474 | 16.43512 | 34748 ft | 429 kts | 207° |
| 2026-05-05 15:33 | 48.46038 | 16.39800 | 34747 ft | 429 kts | 206° |
| 2026-05-05 15:34 | 48.40609 | 16.36101 | 34750 ft | 428 kts | 206° |
| 2026-05-05 15:34 | 48.35190 | 16.32416 | 34749 ft | 427 kts | 206° |
| 2026-05-05 15:35 | 48.29779 | 16.28745 | 34753 ft | 426 kts | 206° |
| 2026-05-05 15:35 | 48.24528 | 16.25190 | 34756 ft | 425 kts | 206° |
| 2026-05-05 15:36 | 48.19131 | 16.21546 | 34749 ft | 424 kts | 206° |
| 2026-05-05 15:36 | 48.13744 | 16.17917 | 34749 ft | 424 kts | 206° |
| 2026-05-05 15:37 | 48.08414 | 16.14334 | 34757 ft | 423 kts | 206° |
| 2026-05-05 15:37 | 48.03012 | 16.10712 | 34765 ft | 422 kts | 206° |
| 2026-05-05 15:38 | 47.97646 | 16.07121 | 34773 ft | 422 kts | 206° |
| 2026-05-05 15:38 | 47.92292 | 16.03547 | 34782 ft | 422 kts | 206° |
| 2026-05-05 15:39 | 47.86933 | 15.99977 | 34795 ft | 421 kts | 206° |
| 2026-05-05 15:39 | 47.81607 | 15.96437 | 34798 ft | 422 kts | 206° |
| 2026-05-05 15:40 | 47.76202 | 15.92854 | 34811 ft | 423 kts | 206° |
| 2026-05-05 15:40 | 47.70857 | 15.89317 | 34817 ft | 423 kts | 206° |
| 2026-05-05 15:41 | 47.65479 | 15.85764 | 34827 ft | 423 kts | 206° |
| 2026-05-05 15:41 | 47.60089 | 15.82217 | 34826 ft | 424 kts | 206° |
| 2026-05-05 15:42 | 47.54694 | 15.78672 | 34835 ft | 424 kts | 206° |
| 2026-05-05 15:42 | 47.49300 | 15.75134 | 34837 ft | 424 kts | 206° |
| 2026-05-05 15:43 | 47.43866 | 15.71712 | 34848 ft | 426 kts | 203° |
| 2026-05-05 15:43 | 47.38318 | 15.68623 | 34849 ft | 427 kts | 202° |
| 2026-05-05 15:44 | 47.32755 | 15.65572 | 34855 ft | 426 kts | 202° |
| 2026-05-05 15:44 | 47.27205 | 15.62492 | 34866 ft | 426 kts | 202° |
| 2026-05-05 15:45 | 47.21659 | 15.59402 | 34868 ft | 427 kts | 203° |
| 2026-05-05 15:45 | 47.16082 | 15.56297 | 34873 ft | 428 kts | 203° |
| 2026-05-05 15:46 | 47.10511 | 15.53203 | 34882 ft | 428 kts | 203° |
| 2026-05-05 15:46 | 47.04969 | 15.50132 | 34885 ft | 429 kts | 203° |
| 2026-05-05 15:47 | 46.99383 | 15.47044 | 34884 ft | 429 kts | 203° |
| 2026-05-05 15:47 | 46.93785 | 15.43980 | 34885 ft | 430 kts | 202° |
| 2026-05-05 15:48 | 46.88144 | 15.41099 | 34883 ft | 430 kts | 201° |
| 2026-05-05 15:48 | 46.82484 | 15.38264 | 34882 ft | 430 kts | 201° |
| 2026-05-05 15:49 | 46.76824 | 15.35417 | 34894 ft | 430 kts | 201° |
| 2026-05-05 15:49 | 46.71168 | 15.32564 | 34898 ft | 430 kts | 201° |
| 2026-05-05 15:50 | 46.65509 | 15.29710 | 34924 ft | 431 kts | 201° |
| 2026-05-05 15:50 | 46.59836 | 15.26853 | 34917 ft | 431 kts | 201° |
| 2026-05-05 15:51 | 46.54167 | 15.24007 | 34932 ft | 431 kts | 201° |
| 2026-05-05 15:51 | 46.48502 | 15.21169 | 34943 ft | 430 kts | 202° |
| 2026-05-05 15:52 | 46.42828 | 15.18332 | 34938 ft | 432 kts | 201° |
| 2026-05-05 15:52 | 46.37187 | 15.15520 | 34946 ft | 432 kts | 202° |
| 2026-05-05 15:53 | 46.31492 | 15.12685 | 34957 ft | 433 kts | 202° |
| 2026-05-05 15:53 | 46.25793 | 15.09854 | 34971 ft | 433 kts | 202° |
| 2026-05-05 15:54 | 46.20092 | 15.07029 | 34973 ft | 434 kts | 202° |
| 2026-05-05 15:54 | 46.14375 | 15.04202 | 34974 ft | 435 kts | 202° |
| 2026-05-05 15:55 | 46.08642 | 15.01374 | 34985 ft | 435 kts | 202° |
| 2026-05-05 15:55 | 46.02905 | 14.98550 | 34983 ft | 436 kts | 202° |
| 2026-05-05 15:56 | 45.97159 | 14.95728 | 34986 ft | 436 kts | 202° |
| 2026-05-05 15:56 | 45.92381 | 14.93385 | 34983 ft | 437 kts | 202° |
| 2026-05-05 15:57 | 45.86631 | 14.90573 | 34987 ft | 436 kts | 202° |
| 2026-05-05 15:57 | 45.80886 | 14.87768 | 34987 ft | 436 kts | 202° |
| 2026-05-05 15:58 | 45.75129 | 14.84964 | 34990 ft | 436 kts | 202° |
| 2026-05-05 15:58 | 45.69392 | 14.82176 | 34990 ft | 435 kts | 202° |
| 2026-05-05 15:59 | 45.63659 | 14.79395 | 34996 ft | 435 kts | 202° |
| 2026-05-05 15:59 | 45.57921 | 14.76616 | 34995 ft | 435 kts | 202° |
| 2026-05-05 16:00 | 45.52173 | 14.73949 | 35011 ft | 437 kts | 198° |
| 2026-05-05 16:00 | 45.46158 | 14.72721 | 35025 ft | 441 kts | 191° |
| 2026-05-05 16:01 | 45.40061 | 14.71803 | 35036 ft | 441 kts | 190° |
| 2026-05-05 16:01 | 45.33968 | 14.70857 | 35044 ft | 440 kts | 191° |
| 2026-05-05 16:02 | 45.27891 | 14.69876 | 35038 ft | 439 kts | 191° |
| 2026-05-05 16:02 | 45.21829 | 14.68881 | 35045 ft | 438 kts | 191° |
| 2026-05-05 16:03 | 45.15788 | 14.67888 | 35048 ft | 437 kts | 191° |
| 2026-05-05 16:03 | 45.09747 | 14.66900 | 35047 ft | 436 kts | 191° |
| 2026-05-05 16:04 | 45.03718 | 14.65916 | 35022 ft | 436 kts | 191° |
| 2026-05-05 16:04 | 44.97695 | 14.64935 | 35021 ft | 436 kts | 191° |
| 2026-05-05 16:05 | 44.91673 | 14.63956 | 35016 ft | 436 kts | 191° |
| 2026-05-05 16:05 | 44.85645 | 14.62979 | 35028 ft | 435 kts | 191° |
| 2026-05-05 16:06 | 44.79629 | 14.62005 | 35029 ft | 435 kts | 191° |
| 2026-05-05 16:06 | 44.73606 | 14.61032 | 35030 ft | 436 kts | 191° |
| 2026-05-05 16:07 | 44.67576 | 14.60061 | 35031 ft | 436 kts | 191° |
| 2026-05-05 16:07 | 44.61583 | 14.59097 | 35031 ft | 437 kts | 191° |
| 2026-05-05 16:08 | 44.55505 | 14.58122 | 35028 ft | 437 kts | 191° |
| 2026-05-05 16:08 | 44.49498 | 14.57160 | 35024 ft | 438 kts | 191° |
| 2026-05-05 16:09 | 44.43402 | 14.56186 | 35023 ft | 438 kts | 191° |
| 2026-05-05 16:09 | 44.37387 | 14.55226 | 35014 ft | 438 kts | 191° |
| 2026-05-05 16:10 | 44.31330 | 14.54263 | 35010 ft | 438 kts | 191° |
| 2026-05-05 16:10 | 44.25266 | 14.53300 | 35011 ft | 438 kts | 191° |
| 2026-05-05 16:11 | 44.19210 | 14.52340 | 35012 ft | 438 kts | 191° |
| 2026-05-05 16:12 | 44.07096 | 14.50426 | 35000 ft | 438 kts | 191° |
| 2026-05-05 16:13 | 43.91961 | 14.48046 | 34998 ft | 438 kts | 191° |
| 2026-05-05 16:13 | 43.85904 | 14.47097 | 35000 ft | 437 kts | 191° |
| 2026-05-05 16:14 | 43.73806 | 14.45207 | 35003 ft | 438 kts | 191° |
| 2026-05-05 16:15 | 43.61700 | 14.43323 | 35000 ft | 438 kts | 191° |
| 2026-05-05 16:16 | 43.55716 | 14.41975 | 34990 ft | 431 kts | 202° |
| 2026-05-05 16:16 | 43.50284 | 14.38823 | 34997 ft | 426 kts | 210° |
| 2026-05-05 16:17 | 43.42171 | 14.33658 | 34995 ft | 427 kts | 210° |
| 2026-05-05 16:18 | 43.34076 | 14.28595 | 34996 ft | 429 kts | 210° |
| 2026-05-05 16:19 | 43.25872 | 14.23510 | 34996 ft | 430 kts | 210° |
| 2026-05-05 16:19 | 43.17713 | 14.18470 | 34995 ft | 431 kts | 210° |
| 2026-05-05 16:20 | 43.06722 | 14.11703 | 34994 ft | 432 kts | 210° |
| 2026-05-05 16:22 | 42.93052 | 14.03323 | 34997 ft | 431 kts | 210° |
| 2026-05-05 16:23 | 42.82109 | 13.96644 | 34996 ft | 429 kts | 211° |
| 2026-05-05 16:23 | 42.73940 | 13.91676 | 34992 ft | 428 kts | 211° |
| 2026-05-05 16:24 | 42.68518 | 13.88386 | 35002 ft | 426 kts | 211° |
| 2026-05-05 16:25 | 42.60389 | 13.83463 | 35005 ft | 426 kts | 211° |
| 2026-05-05 16:25 | 42.52309 | 13.78586 | 35001 ft | 425 kts | 211° |
| 2026-05-05 16:26 | 42.41483 | 13.72072 | 35000 ft | 426 kts | 211° |
| 2026-05-05 16:27 | 42.36061 | 13.68818 | 35004 ft | 426 kts | 211° |
| 2026-05-05 16:27 | 42.30635 | 13.65569 | 35004 ft | 427 kts | 211° |
| 2026-05-05 16:28 | 42.25190 | 13.62315 | 35011 ft | 428 kts | 211° |
| 2026-05-05 16:28 | 42.19734 | 13.59060 | 35013 ft | 430 kts | 211° |
| 2026-05-05 16:29 | 42.14253 | 13.55797 | 35030 ft | 431 kts | 211° |
| 2026-05-05 16:29 | 42.08763 | 13.52534 | 35032 ft | 432 kts | 211° |
| 2026-05-05 16:30 | 42.03260 | 13.49270 | 35036 ft | 432 kts | 211° |
| 2026-05-05 16:30 | 41.97761 | 13.46015 | 35037 ft | 432 kts | 211° |
| 2026-05-05 16:31 | 41.92262 | 13.42767 | 35049 ft | 432 kts | 211° |
| 2026-05-05 16:31 | 41.86765 | 13.39525 | 35025 ft | 430 kts | 211° |
| 2026-05-05 16:32 | 41.81293 | 13.36309 | 35062 ft | 428 kts | 211° |
| 2026-05-05 16:32 | 41.75831 | 13.33095 | 35060 ft | 429 kts | 211° |
| 2026-05-05 16:33 | 41.70357 | 13.29882 | 35054 ft | 429 kts | 211° |
| 2026-05-05 16:33 | 41.64880 | 13.26676 | 35055 ft | 430 kts | 211° |
| 2026-05-05 16:34 | 41.59389 | 13.23467 | 35055 ft | 431 kts | 211° |
| 2026-05-05 16:34 | 41.53895 | 13.20259 | 35051 ft | 431 kts | 211° |
| 2026-05-05 16:35 | 41.48430 | 13.17080 | 35077 ft | 432 kts | 211° |
| 2026-05-05 16:35 | 41.42905 | 13.13869 | 35072 ft | 433 kts | 210° |
| 2026-05-05 16:36 | 41.37378 | 13.10663 | 35067 ft | 434 kts | 210° |
| 2026-05-05 16:36 | 41.31731 | 13.07712 | 35052 ft | 442 kts | 201° |
| 2026-05-05 16:37 | 41.25700 | 13.05905 | 35060 ft | 445 kts | 199° |
| 2026-05-05 16:37 | 41.19640 | 13.04171 | 35058 ft | 446 kts | 199° |
| 2026-05-05 16:38 | 41.13581 | 13.02384 | 35050 ft | 446 kts | 199° |
| 2026-05-05 16:38 | 41.07536 | 13.00576 | 35053 ft | 445 kts | 199° |
| 2026-05-05 16:39 | 41.01498 | 12.98770 | 35051 ft | 444 kts | 199° |
| 2026-05-05 16:39 | 40.95469 | 12.96972 | 35052 ft | 443 kts | 199° |
| 2026-05-05 16:40 | 40.89456 | 12.95182 | 35047 ft | 442 kts | 200° |
| 2026-05-05 16:40 | 40.83493 | 12.93403 | 35048 ft | 442 kts | 200° |
| 2026-05-05 16:41 | 40.77508 | 12.91616 | 35049 ft | 441 kts | 200° |
| 2026-05-05 16:41 | 40.71525 | 12.89834 | 35048 ft | 440 kts | 200° |
| 2026-05-05 16:42 | 40.66521 | 12.88345 | 35047 ft | 440 kts | 200° |
| 2026-05-05 16:42 | 40.60553 | 12.86573 | 35043 ft | 440 kts | 200° |
| 2026-05-05 16:43 | 40.54582 | 12.84803 | 35044 ft | 440 kts | 200° |
| 2026-05-05 16:43 | 40.48608 | 12.83036 | 35044 ft | 440 kts | 200° |
| 2026-05-05 16:44 | 40.42666 | 12.81281 | 35044 ft | 441 kts | 199° |
| 2026-05-05 16:44 | 40.36670 | 12.79514 | 35043 ft | 442 kts | 199° |
| 2026-05-05 16:45 | 40.30660 | 12.77746 | 35039 ft | 443 kts | 199° |
| 2026-05-05 16:45 | 40.24624 | 12.75974 | 35042 ft | 444 kts | 199° |
| 2026-05-05 16:46 | 40.18594 | 12.74206 | 35034 ft | 445 kts | 199° |
| 2026-05-05 16:46 | 40.12537 | 12.72435 | 35036 ft | 446 kts | 199° |
| 2026-05-05 16:47 | 40.06482 | 12.70667 | 35030 ft | 447 kts | 199° |
| 2026-05-05 16:47 | 40.00404 | 12.68896 | 35036 ft | 447 kts | 199° |
| 2026-05-05 16:48 | 39.94333 | 12.67130 | 35036 ft | 447 kts | 199° |
| 2026-05-05 16:48 | 39.88256 | 12.65365 | 35036 ft | 447 kts | 199° |
| 2026-05-05 16:49 | 39.82182 | 12.63604 | 35037 ft | 447 kts | 199° |
| 2026-05-05 16:49 | 39.76115 | 12.61849 | 35032 ft | 447 kts | 199° |
| 2026-05-05 16:50 | 39.70042 | 12.60095 | 35033 ft | 447 kts | 198° |
| 2026-05-05 16:50 | 39.63978 | 12.58346 | 35034 ft | 447 kts | 198° |
| 2026-05-05 16:51 | 39.57910 | 12.56600 | 35031 ft | 447 kts | 198° |
| 2026-05-05 16:51 | 39.51835 | 12.54854 | 35037 ft | 447 kts | 198° |
| 2026-05-05 16:52 | 39.45761 | 12.53112 | 35035 ft | 447 kts | 198° |
| 2026-05-05 16:52 | 39.39678 | 12.51371 | 35032 ft | 448 kts | 198° |
| 2026-05-05 16:53 | 39.33588 | 12.49630 | 35030 ft | 449 kts | 198° |
| 2026-05-05 16:53 | 39.27488 | 12.47891 | 35027 ft | 449 kts | 198° |
| 2026-05-05 16:54 | 39.21378 | 12.46151 | 35026 ft | 450 kts | 198° |
| 2026-05-05 16:54 | 39.15306 | 12.44425 | 35027 ft | 450 kts | 198° |
| 2026-05-05 16:55 | 39.09198 | 12.42693 | 35025 ft | 450 kts | 198° |
| 2026-05-05 16:55 | 39.03086 | 12.40962 | 35017 ft | 449 kts | 198° |
| 2026-05-05 16:56 | 38.96985 | 12.39237 | 35021 ft | 449 kts | 198° |
| 2026-05-05 16:56 | 38.90887 | 12.37516 | 35022 ft | 448 kts | 198° |
| 2026-05-05 16:57 | 38.84805 | 12.35803 | 35023 ft | 447 kts | 198° |
| 2026-05-05 16:57 | 38.78732 | 12.34095 | 35023 ft | 447 kts | 198° |
| 2026-05-05 16:58 | 38.72620 | 12.32379 | 35023 ft | 446 kts | 198° |
| 2026-05-05 16:58 | 38.66561 | 12.30681 | 35023 ft | 446 kts | 198° |
| 2026-05-05 16:59 | 38.60502 | 12.28986 | 35026 ft | 445 kts | 198° |
| 2026-05-05 16:59 | 38.54450 | 12.27295 | 35022 ft | 445 kts | 198° |
| 2026-05-05 17:00 | 38.48395 | 12.25607 | 35023 ft | 445 kts | 198° |
| 2026-05-05 17:00 | 38.42341 | 12.23922 | 35023 ft | 445 kts | 198° |
| 2026-05-05 17:01 | 38.36290 | 12.22240 | 35019 ft | 445 kts | 198° |
| 2026-05-05 17:01 | 38.30271 | 12.20571 | 35018 ft | 446 kts | 198° |
| 2026-05-05 17:02 | 38.24171 | 12.18882 | 35015 ft | 446 kts | 198° |
| 2026-05-05 17:02 | 38.18107 | 12.17205 | 35017 ft | 446 kts | 198° |
| 2026-05-05 17:03 | 38.12033 | 12.15528 | 35013 ft | 447 kts | 198° |
| 2026-05-05 17:03 | 38.05989 | 12.13863 | 35018 ft | 448 kts | 198° |
| 2026-05-05 17:04 | 37.99900 | 12.12189 | 35017 ft | 448 kts | 198° |
| 2026-05-05 17:04 | 37.93799 | 12.10514 | 35018 ft | 448 kts | 198° |
| 2026-05-05 17:05 | 37.87708 | 12.08845 | 35012 ft | 448 kts | 198° |
| 2026-05-05 17:05 | 37.81602 | 12.07174 | 35011 ft | 447 kts | 198° |
| 2026-05-05 17:06 | 37.75537 | 12.05517 | 35006 ft | 447 kts | 198° |
| 2026-05-05 17:06 | 37.69463 | 12.03860 | 35007 ft | 446 kts | 198° |
| 2026-05-05 17:07 | 37.63400 | 12.02209 | 35015 ft | 445 kts | 198° |
| 2026-05-05 17:07 | 37.57351 | 12.00504 | 34999 ft | 441 kts | 203° |
| 2026-05-05 17:08 | 37.54562 | 11.99021 | 35022 ft | 431 kts | 215° |
| 2026-05-05 17:08 | 37.52089 | 11.96949 | 35006 ft | 424 kts | 224° |
| 2026-05-05 17:08 | 37.48092 | 11.91630 | 35004 ft | 417 kts | 233° |
| 2026-05-05 17:09 | 37.44304 | 11.86104 | 35000 ft | 417 kts | 233° |
| 2026-05-05 17:09 | 37.40512 | 11.80643 | 34996 ft | 417 kts | 233° |
| 2026-05-05 17:10 | 37.36642 | 11.75127 | 35006 ft | 418 kts | 233° |
| 2026-05-05 17:10 | 37.32791 | 11.69659 | 35000 ft | 418 kts | 232° |
| 2026-05-05 17:11 | 37.28931 | 11.64187 | 34994 ft | 418 kts | 232° |
| 2026-05-05 17:11 | 37.25092 | 11.58752 | 35001 ft | 419 kts | 232° |
| 2026-05-05 17:12 | 37.21851 | 11.54169 | 34997 ft | 419 kts | 232° |